This is the latest recevied weather packets stored in our database for station/object OH2HCY. If no packets are shown the sender has not sent any weather packets the latest 10 day(s).
| Time | Temp. | Humidity | Pressure | Rain* | Wind** | Luminosity | Snow |
|---|---|---|---|---|---|---|---|
| 1777638680 | 19.44° C | 31% | 1010.5 hPa | - | - | - | - |
| 1777638135 | 19.44° C | 31% | 1010.6 hPa | - | - | - | - |
| 1777637625 | 19.44° C | 30% | 1010.8 hPa | - | - | - | - |
| 1777637089 | 19.44° C | 31% | 1011 hPa | - | - | - | - |
| 1777636510 | 19.44° C | 32% | 1011.1 hPa | - | - | - | - |
| 1777635964 | 18.89° C | 32% | 1011.2 hPa | - | - | - | - |
| 1777635400 | 18.89° C | 33% | 1011.3 hPa | - | - | - | - |
| 1777634853 | 18.89° C | 34% | 1011.6 hPa | - | - | - | - |
| 1777634333 | 18.33° C | 35% | 1011.8 hPa | - | - | - | - |
| 1777633820 | 18.33° C | 35% | 1011.8 hPa | - | - | - | - |
| 1777633270 | 18.89° C | 33% | 1011.7 hPa | - | - | - | - |
| 1777632710 | 18.89° C | 34% | 1012 hPa | - | - | - | - |
| 1777632182 | 17.78° C | 36% | 1012.4 hPa | - | - | - | - |
| 1777631620 | 17.78° C | 36% | 1012.4 hPa | - | - | - | - |
| 1777631070 | 18.33° C | 35% | 1012.5 hPa | - | - | - | - |
| 1777630530 | 17.78° C | 36% | 1012.9 hPa | - | - | - | - |
| 1777630025 | 17.22° C | 39% | 1013.1 hPa | - | - | - | - |
| 1777629460 | 17.22° C | 40% | 1013.3 hPa | - | - | - | - |
| 1777628909 | 16.67° C | 40% | 1013.5 hPa | - | - | - | - |
| 1777628345 | 16.67° C | 41% | 1013.5 hPa | - | - | - | - |
| 1777627809 | 16.67° C | 41% | 1013.5 hPa | - | - | - | - |
| 1777627310 | 16.67° C | 43% | 1013.8 hPa | - | - | - | - |
| 1777626800 | 16.67° C | 43% | 1013.9 hPa | - | - | - | - |
| 1777626275 | 16.67° C | 43% | 1014.3 hPa | - | - | - | - |
| 1777625725 | 16.11° C | 44% | 1014.3 hPa | - | - | - | - |
* Rain since midnight (hover to see other rain measurements)
** Current wind speed in m/s (hover to see current wind gust speed)